createdAt,value
2018-04-25T00:01:57.955Z,7.65
2018-04-25T00:04:23.893Z,7.87
2018-04-25T00:06:49.866Z,8.30
2018-04-25T00:09:15.824Z,7.30
2018-04-25T00:11:41.810Z,7.20
2018-04-25T00:14:07.802Z,7.03
2018-04-25T00:16:34.492Z,6.82
2018-04-25T00:19:00.478Z,7.25
2018-04-25T00:21:26.449Z,6.40
2018-04-25T00:23:52.423Z,6.33
2018-04-25T00:26:18.416Z,6.87
2018-04-25T00:28:44.366Z,7.32
2018-04-25T00:31:10.346Z,6.70
2018-04-25T00:33:36.301Z,7.50
2018-04-25T00:36:02.973Z,7.57
2018-04-25T00:38:28.944Z,6.75
2018-04-25T00:40:54.918Z,7.40
2018-04-25T00:43:20.891Z,6.97
2018-04-25T00:45:46.929Z,6.77
2018-04-25T00:48:12.830Z,7.03
2018-04-25T00:50:38.774Z,6.53
2018-04-25T00:53:05.502Z,7.07
2018-04-25T00:55:31.434Z,7.47
2018-04-25T00:57:58.105Z,7.70
2018-04-25T01:00:24.069Z,6.93
2018-04-25T01:02:50.022Z,7.30
2018-04-25T01:05:15.997Z,7.50
2018-04-25T01:07:41.953Z,6.47
2018-04-25T01:10:07.922Z,6.20
2018-04-25T01:12:33.862Z,6.30
2018-04-25T01:14:59.805Z,6.50
2018-04-25T01:17:25.775Z,6.60
2018-04-25T01:19:51.736Z,6.67
2018-04-25T01:22:17.686Z,7.13
2018-04-25T01:24:44.402Z,6.87
2018-04-25T01:27:10.343Z,6.18
2018-04-25T01:29:36.282Z,7.07
2018-04-25T01:32:02.992Z,6.67
2018-04-25T01:34:28.929Z,5.32
2018-04-25T01:36:54.890Z,5.70
2018-04-25T01:39:20.844Z,6.20
2018-04-25T01:41:46.805Z,6.43
2018-04-25T01:44:13.482Z,6.10
2018-04-25T01:46:39.447Z,5.50
2018-04-25T01:49:05.395Z,7.53
2018-04-25T01:51:31.359Z,5.53
2018-04-25T01:53:57.293Z,5.50
2018-04-25T01:56:23.262Z,5.80
2018-04-25T01:58:49.195Z,6.00
2018-04-25T02:01:15.126Z,5.83
2018-04-25T02:03:41.102Z,6.60
2018-04-25T02:06:07.062Z,5.93
2018-04-25T02:08:33.034Z,4.77
2018-04-25T02:10:58.978Z,5.97
2018-04-25T02:13:25.682Z,4.80
2018-04-25T02:15:51.634Z,5.80
2018-04-25T02:18:18.335Z,6.10
2018-04-25T02:20:44.277Z,6.15
2018-04-25T02:23:10.238Z,4.93
2018-04-25T02:25:36.175Z,5.53
2018-04-25T02:28:02.143Z,6.00
2018-04-25T02:30:28.130Z,5.77
2018-04-25T02:32:54.083Z,5.62
2018-04-25T02:35:20.076Z,6.30
2018-04-25T02:37:46.021Z,4.90
2018-04-25T02:40:11.990Z,6.07
2018-04-25T02:42:37.927Z,5.87
2018-04-25T02:45:03.896Z,5.00
2018-04-25T02:47:29.835Z,6.60
2018-04-25T02:49:55.789Z,5.77
2018-04-25T02:52:21.726Z,5.93
2018-04-25T02:54:47.688Z,5.90
2018-04-25T02:57:13.622Z,4.90
2018-04-25T02:59:40.318Z,6.10
2018-04-25T03:02:06.303Z,6.57
2018-04-25T03:04:32.293Z,5.57
2018-04-25T03:06:58.267Z,5.40
2018-04-25T03:09:24.207Z,5.43
2018-04-25T03:11:50.192Z,6.40
2018-04-25T03:14:16.134Z,6.20
2018-04-25T03:16:42.144Z,7.37
2018-04-25T03:19:08.090Z,6.57
2018-04-25T03:21:34.016Z,5.90
2018-04-25T03:24:00.065Z,6.80
2018-04-25T03:26:26.031Z,5.47
2018-04-25T03:28:51.994Z,5.80
2018-04-25T03:31:17.942Z,7.50
2018-04-25T03:33:43.906Z,5.90
2018-04-25T03:36:09.844Z,5.63
2018-04-25T03:38:35.798Z,5.95
2018-04-25T03:41:01.749Z,5.80
2018-04-25T03:43:28.443Z,5.80
2018-04-25T03:45:54.381Z,6.50
2018-04-25T03:48:20.350Z,5.90
2018-04-25T03:50:46.294Z,6.53
2018-04-25T03:53:12.237Z,6.10
2018-04-25T03:55:38.542Z,6.27
2018-04-25T03:58:04.554Z,6.65
2018-04-25T04:00:30.534Z,7.37
2018-04-25T04:02:56.486Z,5.70
2018-04-25T04:05:22.485Z,6.03
2018-04-25T04:07:48.439Z,5.87
2018-04-25T04:10:14.402Z,6.73
2018-04-25T04:12:40.345Z,6.13
2018-04-25T04:15:06.971Z,6.13
2018-04-25T04:17:33.098Z,6.55
2018-04-25T04:19:59.056Z,6.90
2018-04-25T04:22:25.002Z,5.70
2018-04-25T04:24:51.068Z,6.33
2018-04-25T04:27:16.960Z,5.45
2018-04-25T04:29:42.923Z,7.27
2018-04-25T04:32:09.638Z,6.23
2018-04-25T04:34:35.570Z,5.78
2018-04-25T04:37:01.559Z,4.87
2018-04-25T04:39:27.491Z,6.55
2018-04-25T04:41:53.434Z,5.83
2018-04-25T04:44:19.387Z,6.23
2018-04-25T04:46:45.327Z,5.50
2018-04-25T04:49:11.286Z,5.80
2018-04-25T04:51:37.214Z,6.10
2018-04-25T04:54:03.215Z,5.60
2018-04-25T04:56:29.198Z,6.70
2018-04-25T04:58:56.466Z,6.50
2018-04-25T05:01:22.457Z,6.50
2018-04-25T05:03:48.449Z,6.20
2018-04-25T05:06:14.410Z,6.20
2018-04-25T05:08:41.185Z,6.73
2018-04-25T05:11:07.066Z,6.47
2018-04-25T05:13:33.762Z,6.20
2018-04-25T05:15:59.706Z,5.80
2018-04-25T05:18:25.666Z,5.80
2018-04-25T05:20:51.603Z,5.70
2018-04-25T05:23:17.583Z,6.00
2018-04-25T05:25:43.513Z,6.00
2018-04-25T05:28:10.238Z,5.70
2018-04-25T05:30:36.178Z,6.32
2018-04-25T05:33:02.860Z,5.30
2018-04-25T05:35:28.854Z,5.93
2018-04-25T05:37:54.802Z,6.22
2018-04-25T05:40:20.763Z,5.30
2018-04-25T05:42:46.701Z,6.10
2018-04-25T05:45:13.449Z,5.50
2018-04-25T05:47:40.131Z,6.00
2018-04-25T05:50:06.110Z,6.00
2018-04-25T05:52:32.095Z,5.93
2018-04-25T05:54:58.065Z,5.87
2018-04-25T05:57:24.018Z,5.70
2018-04-25T05:59:49.974Z,6.07
2018-04-25T06:02:15.947Z,6.03
2018-04-25T06:04:41.887Z,6.10
2018-04-25T06:07:07.877Z,4.90
2018-04-25T06:09:33.841Z,6.43
2018-04-25T06:11:59.805Z,5.43
2018-04-25T06:14:26.509Z,5.77
2018-04-25T06:16:52.482Z,5.15
2018-04-25T06:19:18.453Z,5.97
2018-04-25T06:21:44.427Z,5.60
2018-04-25T06:24:10.383Z,6.10
2018-04-25T06:26:36.335Z,5.57
2018-04-25T06:29:02.288Z,5.30
2018-04-25T06:31:28.235Z,5.83
2018-04-25T06:33:54.191Z,4.70
2018-04-25T06:36:20.126Z,5.43
2018-04-25T06:38:46.087Z,5.43
2018-04-25T06:41:12.782Z,5.40
2018-04-25T06:43:38.732Z,5.10
2018-04-25T06:46:04.678Z,5.00
2018-04-25T06:48:30.653Z,5.50
2018-04-25T06:50:56.610Z,5.10
2018-04-25T06:53:22.577Z,6.27
2018-04-25T06:55:48.510Z,4.53
2018-04-25T06:58:14.446Z,4.47
2018-04-25T07:00:40.419Z,5.67
2018-04-25T07:03:06.366Z,5.40
2018-04-25T07:05:32.355Z,5.03
2018-04-25T07:07:58.379Z,5.90
2018-04-25T07:10:24.339Z,5.25
2018-04-25T07:12:50.296Z,5.67
2018-04-25T07:15:16.990Z,5.23
2018-04-25T07:17:42.914Z,5.20
2018-04-25T07:20:08.879Z,4.53
2018-04-25T07:22:35.557Z,5.80
2018-04-25T07:25:01.511Z,5.60
2018-04-25T07:27:27.492Z,5.60
2018-04-25T07:29:53.443Z,5.43
2018-04-25T07:32:19.418Z,5.93
2018-04-25T07:34:45.355Z,5.43
2018-04-25T07:37:11.359Z,5.07
2018-04-25T07:39:37.311Z,5.65
2018-04-25T07:42:03.291Z,5.83
2018-04-25T07:44:29.249Z,6.03
2018-04-25T07:46:55.186Z,5.57
2018-04-25T07:49:21.156Z,6.03
2018-04-25T07:51:47.861Z,5.93
2018-04-25T07:54:13.835Z,5.80
2018-04-25T07:56:39.781Z,5.50
2018-04-25T07:59:05.765Z,5.47
2018-04-25T08:01:31.712Z,5.40
2018-04-25T08:03:58.408Z,5.93
2018-04-25T08:06:25.126Z,5.53
2018-04-25T08:08:51.091Z,6.07
2018-04-25T08:11:17.068Z,4.90
2018-04-25T08:13:43.034Z,6.00
2018-04-25T08:16:09.011Z,5.30
2018-04-25T08:18:34.958Z,5.40
2018-04-25T08:21:00.948Z,5.60
2018-04-25T08:23:26.946Z,5.50
2018-04-25T08:25:52.934Z,6.18
2018-04-25T08:28:19.625Z,5.77
2018-04-25T08:30:45.618Z,4.72
2018-04-25T08:33:11.617Z,5.00
2018-04-25T08:35:38.324Z,5.32
2018-04-25T08:38:04.277Z,5.43
2018-04-25T08:40:30.983Z,4.67
2018-04-25T08:42:56.930Z,4.10
2018-04-25T08:45:22.944Z,4.90
2018-04-25T08:47:48.903Z,4.55
2018-04-25T08:50:14.858Z,4.00
2018-04-25T08:52:40.885Z,4.73
2018-04-25T08:55:07.522Z,4.80
2018-04-25T08:57:33.502Z,5.05
2018-04-25T09:00:00.365Z,4.70
2018-04-25T09:02:26.347Z,4.82
2018-04-25T09:04:52.309Z,4.73
2018-04-25T09:07:18.282Z,5.20
2018-04-25T09:09:44.231Z,4.70
2018-04-25T09:12:11.002Z,4.47
2018-04-25T09:14:36.938Z,5.43
2018-04-25T09:17:02.930Z,4.70
2018-04-25T09:19:28.910Z,4.80
2018-04-25T09:21:54.859Z,3.97
2018-04-25T09:24:21.561Z,4.10
2018-04-25T09:26:47.519Z,4.60
2018-04-25T09:29:14.231Z,4.20
2018-04-25T09:31:40.226Z,4.32
2018-04-25T09:34:06.198Z,3.67
2018-04-25T09:36:32.876Z,3.93
2018-04-25T09:38:58.860Z,3.90
2018-04-25T09:41:25.582Z,4.20
2018-04-25T09:43:51.558Z,4.10
2018-04-25T09:46:17.503Z,4.33
2018-04-25T09:48:43.511Z,4.30
2018-04-25T09:51:09.490Z,3.85
2018-04-25T09:53:36.181Z,4.20
2018-04-25T09:56:02.191Z,4.55
2018-04-25T09:58:28.137Z,4.53
2018-04-25T10:00:54.119Z,3.80
2018-04-25T10:03:20.058Z,3.77
2018-04-25T10:05:46.792Z,4.60
2018-04-25T10:08:12.758Z,3.90
2018-04-25T10:10:38.723Z,3.80
2018-04-25T10:13:04.678Z,4.50
2018-04-25T10:15:30.654Z,3.80
2018-04-25T10:17:56.606Z,3.90
2018-04-25T10:20:22.562Z,4.87
2018-04-25T10:22:48.525Z,3.47
2018-04-25T10:25:14.461Z,3.97
2018-04-25T10:27:40.434Z,4.97
2018-04-25T10:30:06.374Z,3.90
2018-04-25T10:32:33.082Z,4.17
2018-04-25T10:34:59.064Z,4.40
2018-04-25T10:37:25.035Z,4.40
2018-04-25T10:39:51.040Z,4.93
2018-04-25T10:42:16.983Z,4.33
2018-04-25T10:44:42.930Z,5.00
2018-04-25T10:47:09.615Z,5.27
2018-04-25T10:49:35.607Z,4.63
2018-04-25T10:52:01.559Z,5.10
2018-04-25T10:54:27.546Z,5.60
2018-04-25T10:56:53.486Z,4.80
2018-04-25T10:59:19.458Z,4.93
2018-04-25T11:01:45.395Z,5.27
2018-04-25T11:04:11.387Z,4.60
2018-04-25T11:06:37.383Z,5.70
2018-04-25T11:09:03.326Z,4.30
2018-04-25T11:11:29.314Z,4.53
2018-04-25T11:13:55.269Z,4.97
2018-04-25T11:16:21.238Z,5.57
2018-04-25T11:18:47.952Z,4.87
2018-04-25T11:21:13.927Z,5.27
2018-04-25T11:23:39.905Z,4.97
2018-04-25T11:26:05.893Z,4.70
2018-04-25T11:28:31.863Z,4.60
2018-04-25T11:30:58.567Z,4.70
2018-04-25T11:33:24.507Z,4.27
2018-04-25T11:35:50.469Z,5.00
2018-04-25T11:38:16.417Z,4.37
2018-04-25T11:40:42.379Z,4.93
2018-04-25T11:43:08.362Z,4.67
2018-04-25T11:45:34.374Z,4.57
2018-04-25T11:48:00.373Z,4.50
2018-04-25T11:50:26.321Z,4.03
2018-04-25T11:52:52.282Z,3.50
2018-04-25T11:55:18.222Z,4.80
2018-04-25T11:57:44.950Z,4.47
2018-04-25T12:00:11.720Z,4.40
2018-04-25T12:02:37.656Z,4.60
2018-04-25T12:05:03.648Z,4.60
2018-04-25T12:07:29.615Z,4.50
2018-04-25T12:09:55.563Z,4.07
2018-04-25T12:12:21.510Z,5.10
2018-04-25T12:14:48.218Z,4.37
2018-04-25T12:17:14.149Z,3.63
2018-04-25T12:19:40.169Z,3.63
2018-04-25T12:22:06.137Z,4.20
2018-04-25T12:24:32.123Z,4.80
2018-04-25T12:26:58.097Z,4.10
2018-04-25T12:29:24.042Z,4.83
2018-04-25T12:31:50.022Z,4.00
2018-04-25T12:34:15.995Z,3.67
2018-04-25T12:36:41.937Z,4.10
2018-04-25T12:39:07.902Z,4.93
2018-04-25T12:41:33.874Z,3.40
2018-04-25T12:43:59.856Z,4.37
2018-04-25T12:46:25.829Z,4.23
2018-04-25T12:48:51.790Z,4.57
2018-04-25T12:51:17.747Z,4.40
2018-04-25T12:53:43.694Z,4.00
2018-04-25T12:56:09.647Z,4.10
2018-04-25T12:58:35.606Z,4.10
2018-04-25T13:01:01.579Z,4.23
2018-04-25T13:03:27.525Z,4.53
2018-04-25T13:05:53.490Z,4.90
2018-04-25T13:08:19.443Z,5.00
2018-04-25T13:10:45.421Z,5.10
2018-04-25T13:13:11.388Z,4.87
2018-04-25T13:15:37.358Z,4.10
2018-04-25T13:18:03.341Z,4.73
2018-04-25T13:20:29.267Z,5.17
2018-04-25T13:22:55.214Z,4.70
2018-04-25T13:25:21.160Z,4.80
2018-04-25T13:27:47.134Z,4.40
2018-04-25T13:30:13.082Z,4.77
2018-04-25T13:32:39.050Z,5.00
2018-04-25T13:35:04.985Z,5.30
2018-04-25T13:37:30.951Z,4.70
2018-04-25T13:39:56.918Z,5.30
2018-04-25T13:42:22.878Z,4.90
2018-04-25T13:44:48.834Z,6.13
2018-04-25T13:47:14.802Z,4.83
2018-04-25T13:49:40.806Z,5.47
2018-04-25T13:52:07.516Z,4.45
2018-04-25T13:54:33.516Z,5.15
2018-04-25T13:57:03.641Z,4.50
2018-04-25T13:59:30.320Z,4.30
2018-04-25T14:01:56.293Z,3.90
2018-04-25T14:04:23.067Z,3.60
2018-04-25T14:06:49.013Z,3.83
2018-04-25T14:09:15.919Z,3.20
2018-04-25T14:11:41.914Z,3.60
2018-04-25T14:14:09.002Z,3.10
2018-04-25T14:16:35.011Z,4.03
2018-04-25T14:19:00.959Z,3.70
2018-04-25T14:21:26.933Z,3.20
2018-04-25T14:23:53.952Z,3.30
2018-04-25T14:26:19.922Z,3.25
2018-04-25T14:28:45.875Z,3.40
2018-04-25T14:31:11.847Z,3.00
2018-04-25T14:33:37.782Z,3.93
2018-04-25T14:36:03.735Z,2.60
2018-04-25T14:38:29.668Z,2.93
2018-04-25T14:40:55.666Z,3.03
2018-04-25T14:43:21.603Z,2.80
2018-04-25T14:45:47.558Z,3.00
2018-04-25T14:48:13.543Z,2.53
2018-04-25T14:50:39.498Z,3.80
2018-04-25T14:53:05.468Z,2.60
2018-04-25T14:55:31.409Z,3.20
2018-04-25T14:57:57.426Z,3.77
2018-04-25T15:00:23.383Z,3.25
2018-04-25T15:02:49.321Z,3.50
2018-04-25T15:05:15.302Z,3.77
2018-04-25T15:07:41.258Z,3.87
2018-04-25T15:10:07.218Z,3.23
2018-04-25T15:12:33.194Z,3.30
2018-04-25T15:14:59.902Z,3.37
2018-04-25T15:17:25.856Z,3.12
2018-04-25T15:19:52.574Z,3.73
2018-04-25T15:22:19.262Z,3.85
2018-04-25T15:24:45.221Z,3.22
2018-04-25T15:27:11.159Z,3.10
2018-04-25T15:29:37.127Z,3.60
2018-04-25T15:32:03.090Z,3.53
2018-04-25T15:34:29.028Z,3.90
2018-04-25T15:36:55.735Z,3.47
2018-04-25T15:39:21.681Z,3.65
2018-04-25T15:41:47.650Z,4.23
2018-04-25T15:44:13.601Z,3.40
2018-04-25T15:46:39.667Z,3.70
2018-04-25T15:49:05.530Z,3.80
2018-04-25T15:51:31.528Z,4.00
2018-04-25T15:53:57.499Z,3.40
2018-04-25T15:56:23.478Z,3.43
2018-04-25T15:58:49.445Z,3.60
2018-04-25T16:01:15.440Z,4.50
2018-04-25T16:03:41.481Z,3.67
2018-04-25T16:06:08.123Z,3.80
2018-04-25T16:08:34.110Z,4.30
2018-04-25T16:11:00.989Z,3.40
2018-04-25T16:13:26.981Z,3.60
2018-04-25T16:15:53.654Z,3.17
2018-04-25T16:18:22.743Z,3.55
2018-04-25T16:20:50.687Z,3.58
2018-04-25T16:23:18.581Z,3.40
2018-04-25T16:25:45.528Z,3.12
2018-04-25T16:28:11.848Z,3.25
2018-04-25T16:30:38.503Z,3.83
2018-04-25T16:33:05.462Z,3.50
2018-04-25T16:35:33.128Z,3.10
2018-04-25T16:37:59.850Z,3.85
2018-04-25T16:40:25.900Z,3.67
2018-04-25T16:42:54.591Z,3.58
2018-04-25T16:45:20.736Z,4.45
2018-04-25T16:47:46.730Z,3.22
2018-04-25T16:50:16.830Z,3.80
2018-04-25T16:52:42.788Z,3.60
2018-04-25T16:55:09.650Z,3.97
2018-04-25T16:57:35.606Z,3.08
2018-04-25T17:00:01.691Z,3.10
2018-04-25T17:02:27.705Z,3.25
2018-04-25T17:04:54.642Z,3.05
2018-04-25T17:07:21.614Z,3.45
2018-04-25T17:09:47.568Z,3.25
2018-04-25T17:12:14.643Z,3.23
2018-04-25T17:14:41.629Z,3.25
2018-04-25T17:17:08.838Z,3.20
2018-04-25T17:19:35.573Z,2.72
2018-04-25T17:22:02.985Z,3.22
2018-04-25T17:24:29.118Z,3.37
2018-04-25T17:26:55.120Z,3.22
2018-04-25T17:29:22.081Z,2.70
2018-04-25T17:31:49.632Z,3.20
2018-04-25T17:34:18.068Z,2.75
2018-04-25T17:36:45.423Z,2.85
2018-04-25T17:39:12.486Z,3.20
2018-04-25T17:41:38.623Z,2.90
2018-04-25T17:44:04.575Z,3.00
2018-04-25T17:46:30.524Z,2.87
2018-04-25T17:48:56.486Z,3.10
2018-04-25T17:51:22.750Z,3.20
2018-04-25T17:53:48.795Z,2.78
2018-04-25T17:56:18.129Z,3.03
2018-04-25T17:58:47.466Z,3.37
2018-04-25T18:01:14.254Z,3.30
2018-04-25T18:03:41.449Z,2.70
2018-04-25T18:06:08.636Z,2.47
2018-04-25T18:08:34.724Z,2.60
2018-04-25T18:11:03.251Z,3.15
2018-04-25T18:13:29.261Z,2.75
2018-04-25T18:16:00.211Z,2.28
2018-04-25T18:18:27.909Z,2.80
2018-04-25T18:20:54.918Z,2.35
2018-04-25T18:23:22.004Z,2.70
2018-04-25T18:25:48.918Z,2.55
2018-04-25T18:28:17.053Z,2.15
2018-04-25T18:30:44.431Z,2.55
2018-04-25T18:33:15.132Z,2.85
2018-04-25T18:35:43.598Z,2.53
2018-04-25T18:38:09.900Z,2.83
2018-04-25T18:40:36.737Z,2.67
2018-04-25T18:43:06.456Z,2.65
2018-04-25T18:45:34.123Z,2.62
2018-04-25T18:48:01.227Z,3.05
2018-04-25T18:50:29.079Z,2.70
2018-04-25T18:52:55.304Z,2.80
2018-04-25T18:55:22.053Z,2.60
2018-04-25T18:57:49.404Z,2.70
2018-04-25T19:00:16.306Z,2.33
2018-04-25T19:02:42.399Z,2.70
2018-04-25T19:05:10.879Z,2.72
2018-04-25T19:07:39.297Z,2.40
2018-04-25T19:10:05.591Z,2.45
2018-04-25T19:12:33.238Z,2.30
2018-04-25T19:15:00.553Z,2.70
2018-04-25T19:17:28.974Z,2.00
2018-04-25T19:19:56.916Z,2.60
2018-04-25T19:22:24.787Z,2.30
2018-04-25T19:24:52.641Z,2.45
2018-04-25T19:27:18.707Z,2.50
2018-04-25T19:29:44.687Z,2.65
2018-04-25T19:32:11.857Z,1.90
2018-04-25T19:34:38.167Z,2.20
2018-04-25T19:37:04.551Z,2.17
2018-04-25T19:39:32.062Z,2.67
2018-04-25T19:41:58.595Z,2.40
2018-04-25T19:44:24.958Z,2.10
2018-04-25T19:46:51.305Z,2.05
2018-04-25T19:49:17.608Z,2.12
2018-04-25T19:51:45.048Z,2.20
2018-04-25T19:54:11.510Z,1.80
2018-04-25T19:56:37.547Z,1.92
2018-04-25T19:59:05.381Z,1.87
2018-04-25T20:01:31.375Z,1.90
2018-04-25T20:03:59.268Z,2.20
2018-04-25T20:06:26.705Z,2.10
2018-04-25T20:08:53.505Z,1.80
2018-04-25T20:11:19.830Z,1.83
2018-04-25T20:13:46.638Z,1.83
2018-04-25T20:16:12.635Z,2.15
2018-04-25T20:18:39.528Z,1.83
2018-04-25T20:21:05.537Z,2.30
2018-04-25T20:23:31.525Z,2.00
2018-04-25T20:25:57.495Z,1.73
2018-04-25T20:28:23.465Z,1.97
2018-04-25T20:30:49.476Z,2.00
2018-04-25T20:33:16.166Z,1.92
2018-04-25T20:35:43.159Z,2.15
2018-04-25T20:38:09.861Z,1.80
2018-04-25T20:40:35.846Z,1.80
2018-04-25T20:43:01.822Z,1.90
2018-04-25T20:45:27.811Z,2.33
2018-04-25T20:47:55.606Z,2.37
2018-04-25T20:50:21.571Z,2.40
2018-04-25T20:52:47.555Z,2.33
2018-04-25T20:55:13.540Z,2.73
2018-04-25T20:57:40.123Z,2.37
2018-04-25T21:00:06.069Z,3.05
2018-04-25T21:02:32.050Z,2.87
2018-04-25T21:04:58.034Z,2.83
2018-04-25T21:07:24.031Z,2.85
2018-04-25T21:09:50.000Z,2.87
2018-04-25T21:12:15.963Z,3.00
2018-04-25T21:14:41.961Z,3.00
2018-04-25T21:17:07.929Z,2.55
2018-04-25T21:19:33.904Z,2.63
2018-04-25T21:21:59.852Z,2.80
2018-04-25T21:24:25.862Z,3.00
2018-04-25T21:26:51.822Z,2.83
2018-04-25T21:29:18.522Z,3.13
2018-04-25T21:31:44.483Z,2.37
2018-04-25T21:34:10.431Z,3.00
2018-04-25T21:36:36.412Z,3.00
2018-04-25T21:39:03.122Z,2.40
2018-04-25T21:41:29.092Z,2.62
2018-04-25T21:43:55.037Z,2.57
2018-04-25T21:46:21.002Z,2.73
2018-04-25T21:48:46.958Z,2.37
2018-04-25T21:51:13.006Z,2.50
2018-04-25T21:53:38.916Z,2.30
2018-04-25T21:56:05.894Z,2.60
2018-04-25T21:58:31.851Z,2.55
2018-04-25T22:00:58.575Z,2.37
2018-04-25T22:03:24.519Z,3.45
2018-04-25T22:05:51.258Z,2.30
2018-04-25T22:08:17.978Z,2.58
2018-04-25T22:10:43.926Z,2.72
2018-04-25T22:13:10.628Z,3.20
2018-04-25T22:15:37.535Z,3.20
2018-04-25T22:18:04.876Z,3.40
2018-04-25T22:20:31.103Z,3.00
2018-04-25T22:22:57.863Z,3.90
2018-04-25T22:25:24.973Z,3.80
2018-04-25T22:27:51.994Z,3.92
2018-04-25T22:30:18.294Z,3.97
2018-04-25T22:32:44.294Z,3.50
2018-04-25T22:35:11.247Z,4.22
2018-04-25T22:37:38.583Z,3.85
2018-04-25T22:40:04.879Z,4.40
2018-04-25T22:42:31.935Z,3.95
2018-04-25T22:45:00.566Z,3.83
2018-04-25T22:47:26.555Z,4.15
2018-04-25T22:49:53.871Z,3.90
2018-04-25T22:52:21.043Z,4.00
2018-04-25T22:54:47.830Z,4.15
2018-04-25T22:57:14.570Z,3.90
2018-04-25T22:59:41.528Z,4.20
2018-04-25T23:02:07.513Z,4.25
2018-04-25T23:04:34.321Z,4.55
2018-04-25T23:07:00.839Z,4.60
2018-04-25T23:09:27.137Z,4.25
2018-04-25T23:11:53.136Z,4.55
2018-04-25T23:14:20.830Z,4.43
2018-04-25T23:16:46.831Z,4.65
2018-04-25T23:19:12.786Z,4.70
2018-04-25T23:21:38.791Z,4.73
2018-04-25T23:24:05.015Z,4.80
2018-04-25T23:26:32.089Z,4.45
2018-04-25T23:28:58.096Z,4.60
2018-04-25T23:31:24.307Z,4.80
2018-04-25T23:33:51.810Z,4.62
2018-04-25T23:36:19.026Z,4.97
2018-04-25T23:38:45.661Z,4.28
2018-04-25T23:41:12.134Z,4.72
2018-04-25T23:43:38.141Z,4.32
2018-04-25T23:46:04.789Z,4.65
2018-04-25T23:48:30.818Z,5.47
2018-04-25T23:50:56.789Z,4.60
2018-04-25T23:53:22.788Z,4.85
2018-04-25T23:55:48.771Z,4.22
2018-04-25T23:58:14.761Z,5.25
